< < Back
Terminal Aerodrome Forecast


Current Version              Previous Versions:   1  2  3  4  5  6  7  8  9  

Terminal Aerodrome Forecast

630
FTUS42 KGSP 261911 AAA
TAFGSP
TAF AMD
KGSP 261911Z 2619/2718 23012G21KT P6SM SCT028 BKN035
     FM270400 23007KT P6SM -SHRA OVC050
     FM270600 24006KT 4SM -SHRA OVC016 PROB30 2706/2708 2SM TSRA
      OVC016CB
     FM270800 29008KT 4SM -SHRA OVC018
     FM271100 35007KT P6SM OVC030=

Latest METAR

958
SAUS70 KWBC 270700 RRD
MTRGSP
METAR KGSP 270653Z 00000KT 10SM OVC100 17/14 A2968 RMK AO2 SLP041
T01670139


USA.gov is the U.S. government's official web portal to all federal, state and local government web resources and services.